Time;durP1;ratioP1;P1;durP2;ratioP2;P2;SDS_P1;SDS_P2;PMS_P1;PMS_P2;Temp;Humidity;BMP_temperature;BMP_pressure;BME280_temperature;BME280_humidity;BME280_pressure;Samples;Min_cycle;Max_cycle;Signal;HPM_P1;HPM_P2
2022/04/11 00:01:25;;;;;;;48.00;22.90;;;;;;;4.29;100.00;101641.13;4958568;28;20042;-81
2022/04/11 00:03:51;;;;;;;51.47;22.60;;;;;;;4.26;100.00;101633.97;4948959;28;20077;-81
2022/04/11 00:06:17;;;;;;;47.67;22.77;;;;;;;4.26;100.00;101633.09;4976365;28;20384;-81
2022/04/11 00:08:42;;;;;;;47.38;22.08;;;;;;;4.18;100.00;101620.75;4959414;28;20125;-81
2022/04/11 00:11:07;;;;;;;48.92;22.88;;;;;;;4.11;100.00;101621.91;4951849;28;20490;-81
2022/04/11 00:13:33;;;;;;;56.42;22.65;;;;;;;4.13;100.00;101614.63;4960123;28;20034;-81
2022/04/11 00:15:59;;;;;;;49.70;23.20;;;;;;;4.04;100.00;101609.56;4967231;28;20037;-81
2022/04/11 00:18:24;;;;;;;51.83;23.52;;;;;;;4.00;100.00;101597.97;4962388;28;20034;-81
2022/04/11 00:20:50;;;;;;;59.38;25.05;;;;;;;3.98;100.00;101594.44;4988288;28;20037;-81
2022/04/11 00:23:16;;;;;;;51.63;23.23;;;;;;;3.94;100.00;101606.34;4968375;28;20073;-81
2022/04/11 00:25:42;;;;;;;57.08;24.15;;;;;;;3.94;100.00;101608.19;4955045;28;20418;-81
2022/04/11 00:28:07;;;;;;;62.78;23.55;;;;;;;4.02;100.00;101597.91;4961108;28;20517;-81
2022/04/11 00:30:33;;;;;;;56.67;22.92;;;;;;;3.94;100.00;101600.94;4954576;28;20026;-81
2022/04/11 00:32:58;;;;;;;56.08;22.75;;;;;;;4.00;100.00;101599.78;4970996;28;20031;-81
2022/04/11 00:35:24;;;;;;;62.50;24.35;;;;;;;4.04;100.00;101606.88;4953963;28;20394;-81
2022/04/11 00:37:49;;;;;;;63.40;24.67;;;;;;;3.99;100.00;101603.47;4977421;28;20031;-82
2022/04/11 00:40:15;;;;;;;59.00;23.80;;;;;;;3.93;100.00;101585.59;4965296;28;20054;-82
2022/04/11 00:42:40;;;;;;;68.55;24.30;;;;;;;3.99;100.00;101584.50;4971461;28;20093;-80
2022/04/11 00:45:06;;;;;;;67.53;25.02;;;;;;;4.01;100.00;101585.31;4953661;28;20042;-81
2022/04/11 00:47:32;;;;;;;52.47;23.50;;;;;;;4.10;100.00;101587.66;4975901;28;20039;-81
2022/04/11 00:50:07;;;;;;;57.58;23.35;;;;;;;4.07;100.00;101581.44;4973086;28;20375;-80
2022/04/11 00:52:37;;;;;;;53.55;23.38;;;;;;;4.04;100.00;101583.34;4959054;29;20046;-81
2022/04/11 00:55:05;;;;;;;65.75;24.02;;;;;;;4.17;100.00;101574.75;4948506;28;20101;-80
2022/04/11 00:57:30;;;;;;;56.20;23.40;;;;;;;4.18;100.00;101569.25;4952289;29;20035;-80
2022/04/11 00:59:57;;;;;;;67.75;25.58;;;;;;;4.19;100.00;101562.00;4967662;28;20053;-81
2022/04/11 01:02:22;;;;;;;55.72;23.13;;;;;;;4.27;100.00;101567.13;4955078;28;20121;-81
2022/04/11 01:04:48;;;;;;;50.90;23.33;;;;;;;4.23;100.00;101555.50;4945205;28;20035;-81
2022/04/11 01:07:13;;;;;;;66.47;25.35;;;;;;;4.19;100.00;101552.03;4955585;29;20126;-81
2022/04/11 01:09:40;;;;;;;47.50;22.17;;;;;;;4.05;100.00;101549.91;4944498;29;20031;-81
2022/04/11 01:12:06;;;;;;;49.17;23.05;;;;;;;4.11;100.00;101564.16;4974563;28;20050;-81
2022/04/11 01:14:32;;;;;;;52.22;23.30;;;;;;;4.08;100.00;101559.72;4958604;28;20449;-81
2022/04/11 01:16:58;;;;;;;52.50;22.85;;;;;;;4.04;100.00;101552.69;4952227;28;20127;-80
2022/04/11 01:19:25;;;;;;;47.25;22.13;;;;;;;4.05;100.00;101560.75;4954432;28;20041;-80
2022/04/11 01:21:51;;;;;;;50.00;22.50;;;;;;;4.09;100.00;101555.19;4957302;28;20081;-80
2022/04/11 01:24:20;;;;;;;42.95;20.88;;;;;;;4.06;100.00;101548.06;4971813;28;20024;-79
2022/04/11 01:26:48;;;;;;;48.28;22.17;;;;;;;3.99;100.00;101546.56;4961071;28;20073;-80
2022/04/11 01:29:15;;;;;;;46.92;22.00;;;;;;;4.05;100.00;101551.75;4973198;28;20034;-79
2022/04/11 01:31:41;;;;;;;49.35;21.23;;;;;;;4.05;100.00;101546.31;4961612;28;20062;-80
2022/04/11 01:34:06;;;;;;;49.55;21.73;;;;;;;4.04;100.00;101542.72;4953633;28;20066;-79
2022/04/11 01:36:32;;;;;;;50.42;21.48;;;;;;;4.02;100.00;101554.56;4960770;28;20378;-80
2022/04/11 01:38:57;;;;;;;40.03;19.90;;;;;;;4.02;100.00;101547.31;4975134;28;20121;-80
2022/04/11 01:41:23;;;;;;;38.97;18.60;;;;;;;4.06;100.00;101548.06;4971503;28;20451;-79
2022/04/11 01:43:48;;;;;;;31.77;18.13;;;;;;;4.08;100.00;101548.00;4959458;29;20039;-80
2022/04/11 01:46:14;;;;;;;39.17;20.15;;;;;;;3.96;100.00;101550.25;4971793;28;20031;-80
2022/04/11 01:48:39;;;;;;;39.80;18.35;;;;;;;3.96;100.00;101543.97;4955744;28;20407;-80
2022/04/11 01:51:05;;;;;;;37.97;18.45;;;;;;;3.96;100.00;101541.25;4968075;28;20502;-80
2022/04/11 01:53:31;;;;;;;37.03;16.83;;;;;;;3.93;100.00;101536.84;4954990;28;20109;-80
2022/04/11 01:55:57;;;;;;;35.65;17.05;;;;;;;3.97;100.00;101538.50;4954247;28;20031;-80
2022/04/11 01:58:22;;;;;;;39.70;16.75;;;;;;;3.97;100.00;101543.91;4956210;29;20475;-80
2022/04/11 02:00:48;;;;;;;27.65;16.25;;;;;;;3.98;100.00;101540.25;4964506;28;20035;-80
2022/04/11 02:03:13;;;;;;;33.55;16.63;;;;;;;3.88;100.00;101546.09;4976315;28;20093;-80
2022/04/11 02:05:40;;;;;;;39.53;15.48;;;;;;;3.91;100.00;101548.69;4960128;28;20138;-80
2022/04/11 02:08:07;;;;;;;28.58;15.52;;;;;;;3.83;100.00;101533.63;4975551;28;20041;-81
2022/04/11 02:10:37;;;;;;;32.50;14.27;;;;;;;3.83;100.00;101544.44;4965343;28;20033;-81
2022/04/11 02:13:04;;;;;;;21.63;13.57;;;;;;;3.73;100.00;101548.47;4959967;28;20031;-80
2022/04/11 02:15:29;;;;;;;20.52;13.13;;;;;;;3.68;100.00;101554.06;4958548;28;20114;-79
2022/04/11 02:17:55;;;;;;;17.75;12.60;;;;;;;3.64;100.00;101552.44;4965830;28;20102;-80
2022/04/11 02:20:21;;;;;;;29.27;13.18;;;;;;;3.63;100.00;101539.81;4969406;28;20038;-80
2022/04/11 02:22:48;;;;;;;25.38;14.07;;;;;;;3.68;100.00;101545.06;4957557;28;20034;-82
2022/04/11 02:25:14;;;;;;;16.85;11.85;;;;;;;3.68;100.00;101553.19;4969917;28;20475;-82
2022/04/11 02:27:41;;;;;;;19.88;12.70;;;;;;;3.66;100.00;101544.25;4967495;28;20122;-82
2022/04/11 02:30:08;;;;;;;21.70;11.88;;;;;;;3.68;100.00;101536.94;4963421;28;20035;-82
2022/04/11 02:32:33;;;;;;;19.33;12.10;;;;;;;3.71;100.00;101553.09;4970408;28;20031;-82
2022/04/11 02:34:59;;;;;;;17.13;10.98;;;;;;;3.59;100.00;101538.19;4966309;28;20488;-81
2022/04/11 02:37:24;;;;;;;18.05;12.27;;;;;;;3.72;100.00;101545.81;4973724;28;20089;-82
2022/04/11 02:39:50;;;;;;;19.10;11.10;;;;;;;3.67;100.00;101546.91;4973246;28;20050;-82
2022/04/11 02:42:25;;;;;;;17.75;11.77;;;;;;;3.61;100.00;101552.56;4974049;28;20043;-82
2022/04/11 02:44:51;;;;;;;22.48;11.02;;;;;;;3.56;100.00;101537.41;4965464;28;20042;-81
2022/04/11 02:47:17;;;;;;;16.75;10.85;;;;;;;3.53;100.00;101542.97;4955410;29;20059;-82
2022/04/11 02:49:43;;;;;;;15.38;10.68;;;;;;;3.58;100.00;101544.53;4948664;28;20043;-82
2022/04/11 02:52:08;;;;;;;15.75;9.77;;;;;;;3.62;100.00;101553.44;4969227;28;20042;-81
2022/04/11 02:54:35;;;;;;;17.00;10.50;;;;;;;3.55;100.00;101550.06;4973716;28;20849;-81
2022/04/11 02:57:01;;;;;;;22.42;10.85;;;;;;;3.40;100.00;101532.59;4958636;28;20039;-81
2022/04/11 02:59:26;;;;;;;20.20;11.43;;;;;;;3.50;100.00;101550.25;4964079;28;20073;-81
2022/04/11 03:01:52;;;;;;;22.77;11.93;;;;;;;3.46;100.00;101545.91;4974759;28;20035;-82
2022/04/11 03:04:17;;;;;;;22.63;10.95;;;;;;;3.30;100.00;101544.72;4972117;28;20027;-81
2022/04/11 03:06:43;;;;;;;16.75;11.93;;;;;;;3.26;100.00;101538.56;4958999;29;20487;-82
2022/04/11 03:09:08;;;;;;;15.25;10.63;;;;;;;3.33;100.00;101541.91;4957149;28;20606;-82
2022/04/11 03:11:34;;;;;;;17.92;10.40;;;;;;;3.20;100.00;101532.47;4967342;28;20087;-82
2022/04/11 03:14:00;;;;;;;16.98;10.73;;;;;;;2.92;100.00;101504.63;4965318;28;20110;-81
2022/04/11 03:16:26;;;;;;;19.42;11.27;;;;;;;3.09;100.00;101531.03;4970830;28;20139;-82
2022/04/11 03:18:52;;;;;;;13.85;10.30;;;;;;;3.02;100.00;101529.53;4963158;28;20043;-82
2022/04/11 03:21:17;;;;;;;17.42;10.50;;;;;;;2.94;100.00;101504.56;4961435;28;20039;-81
2022/04/11 03:23:42;;;;;;;17.58;11.02;;;;;;;2.83;100.00;101501.38;4965298;28;20559;-81
2022/04/11 03:26:08;;;;;;;19.83;11.40;;;;;;;3.04;100.00;101526.75;4944703;29;20035;-82
2022/04/11 03:28:33;;;;;;;13.85;10.32;;;;;;;3.01;100.00;101519.63;4953204;28;20039;-80
2022/04/11 03:30:59;;;;;;;18.88;10.02;;;;;;;2.92;100.00;101504.63;4969594;28;20194;-82
2022/04/11 03:33:25;;;;;;;19.85;10.50;;;;;;;2.79;100.00;101497.91;4942175;28;20023;-82
2022/04/11 03:35:50;;;;;;;17.23;9.95;;;;;;;2.94;100.00;101520.81;4966301;28;20408;-82
2022/04/11 03:38:16;;;;;;;16.42;10.65;;;;;;;2.88;100.00;101507.50;4965284;28;20114;-82
2022/04/11 03:40:42;;;;;;;16.33;9.38;;;;;;;2.96;100.00;101526.16;4969815;28;20058;-82
2022/04/11 03:43:07;;;;;;;16.60;10.10;;;;;;;2.90;100.00;101527.25;4957266;28;20490;-82
2022/04/11 03:45:33;;;;;;;16.20;10.88;;;;;;;2.82;100.00;101527.56;4956354;28;20043;-79
2022/04/11 03:47:58;;;;;;;16.58;10.05;;;;;;;2.87;100.00;101528.25;4954396;28;20043;-79
2022/04/11 03:50:23;;;;;;;15.38;9.95;;;;;;;2.82;100.00;101527.56;4962605;28;20031;-80
2022/04/11 03:52:49;;;;;;;17.77;9.85;;;;;;;2.88;100.00;101529.13;4954552;28;20070;-80
2022/04/11 03:55:15;;;;;;;12.82;9.35;;;;;;;2.86;100.00;101533.72;4977150;28;20066;-80
2022/04/11 03:57:41;;;;;;;12.73;9.07;;;;;;;2.74;100.00;101532.34;4974304;28;20196;-80
2022/04/11 04:00:07;;;;;;;22.92;10.45;;;;;;;2.73;100.00;101526.03;4975392;28;20034;-80
2022/04/11 04:02:33;;;;;;;19.60;10.65;;;;;;;2.53;100.00;101497.00;4958480;29;20086;-80
2022/04/11 04:04:58;;;;;;;13.20;9.93;;;;;;;2.73;100.00;101531.44;4967124;28;20031;-78
2022/04/11 04:07:24;;;;;;;19.67;10.38;;;;;;;2.62;100.00;101533.63;4961811;28;20118;-79
2022/04/11 04:09:49;;;;;;;18.92;9.90;;;;;;;2.58;100.00;101527.47;4967592;28;20035;-79
2022/04/11 04:12:19;;;;;;;17.08;10.05;;;;;;;2.66;100.00;101538.00;4963381;28;20027;-79
2022/04/11 04:14:46;;;;;;;20.92;10.88;;;;;;;2.58;100.00;101530.16;4968111;28;20035;-80
2022/04/11 04:17:11;;;;;;;16.23;10.18;;;;;;;2.64;100.00;101530.88;4948263;28;20035;-79
2022/04/11 04:19:37;;;;;;;19.10;10.63;;;;;;;2.65;100.00;101538.94;4966434;28;20111;-79
2022/04/11 04:22:03;;;;;;;16.08;10.73;;;;;;;2.55;100.00;101527.56;4959494;28;20035;-80
2022/04/11 04:24:28;;;;;;;15.18;10.38;;;;;;;2.39;100.00;101527.22;4962632;28;20055;-79
2022/04/11 04:26:54;;;;;;;18.80;10.80;;;;;;;2.42;100.00;101522.66;4947720;28;20037;-79
2022/04/11 04:29:20;;;;;;;15.02;9.73;;;;;;;2.39;100.00;101523.63;4954954;28;20031;-79
2022/04/11 04:31:47;;;;;;;23.23;10.35;;;;;;;2.42;100.00;101511.84;4954792;28;20035;-79
2022/04/11 04:34:14;;;;;;;18.40;10.55;;;;;;;2.32;100.00;101520.25;4955824;28;20049;-82
2022/04/11 04:36:39;;;;;;;14.88;9.88;;;;;;;2.36;100.00;101524.63;4963745;28;20042;-79
2022/04/11 04:39:05;;;;;;;20.15;10.68;;;;;;;2.39;100.00;101515.53;4958153;28;20111;-78
2022/04/11 04:41:30;;;;;;;21.92;11.25;;;;;;;2.42;100.00;101518.13;4953236;29;20515;-78
2022/04/11 04:43:56;;;;;;;14.95;10.07;;;;;;;2.41;100.00;101519.06;4964203;28;20042;-78
2022/04/11 04:46:21;;;;;;;14.68;10.90;;;;;;;2.30;100.00;101511.31;4960222;28;20510;-78
2022/04/11 04:48:47;;;;;;;19.27;11.07;;;;;;;2.32;100.00;101522.97;4975667;28;20387;-78
2022/04/11 04:51:12;;;;;;;17.40;10.90;;;;;;;2.27;100.00;101522.22;4974298;28;20047;-78
2022/04/11 04:53:38;;;;;;;23.50;11.65;;;;;;;2.27;100.00;101506.03;4966715;28;20049;-78
2022/04/11 04:56:04;;;;;;;18.85;11.10;;;;;;;2.23;100.00;101498.97;4975673;28;20099;-78
2022/04/11 04:58:29;;;;;;;22.80;11.23;;;;;;;2.29;100.00;101509.53;4975666;28;20035;-80
2022/04/11 05:00:55;;;;;;;19.80;10.27;;;;;;;2.28;100.00;101513.22;4972114;28;20134;-80
2022/04/11 05:03:20;;;;;;;17.25;10.98;;;;;;;2.26;100.00;101512.34;4968531;28;20365;-81
2022/04/11 05:05:46;;;;;;;16.60;11.30;;;;;;;2.20;100.00;101497.25;4972680;28;20061;-79
2022/04/11 05:08:11;;;;;;;16.10;10.63;;;;;;;2.22;100.00;101508.00;4967044;28;20122;-79
2022/04/11 05:10:36;;;;;;;16.75;11.73;;;;;;;2.20;100.00;101508.06;4965191;28;20067;-80
2022/04/11 05:13:02;;;;;;;15.15;10.65;;;;;;;2.24;100.00;101506.13;4971271;28;20039;-79
2022/04/11 05:15:28;;;;;;;21.88;11.45;;;;;;;2.23;100.00;101506.19;4979574;28;20039;-80
2022/04/11 05:17:53;;;;;;;23.60;12.43;;;;;;;2.12;100.00;101490.34;4978662;28;20109;-79
2022/04/11 05:20:19;;;;;;;22.50;13.07;;;;;;;2.27;100.00;101508.72;4975293;28;20035;-79
2022/04/11 05:22:45;;;;;;;21.25;11.45;;;;;;;2.24;100.00;101502.56;4960454;28;20042;-79
2022/04/11 05:25:10;;;;;;;19.40;12.55;;;;;;;2.39;100.00;101510.13;4947614;28;20039;-80
2022/04/11 05:27:35;;;;;;;26.55;13.40;;;;;;;2.30;100.00;101491.53;4973271;28;20046;-80
2022/04/11 05:30:05;;;;;;;22.58;13.00;;;;;;;2.36;100.00;101499.41;4967297;28;20129;-78
2022/04/11 05:32:31;;;;;;;19.88;12.25;;;;;;;2.45;100.00;101503.63;4945452;28;20039;-79
2022/04/11 05:34:56;;;;;;;19.63;12.65;;;;;;;2.55;100.00;101505.06;4954435;28;20490;-80
2022/04/11 05:37:22;;;;;;;19.65;13.82;;;;;;;2.56;100.00;101501.44;4972043;28;20051;-80
2022/04/11 05:39:47;;;;;;;23.83;13.90;;;;;;;2.64;100.00;101504.75;4963104;28;20039;-80
2022/04/11 05:42:13;;;;;;;21.58;13.60;;;;;;;2.64;100.00;101499.34;4970017;28;20043;-79
2022/04/11 05:44:38;;;;;;;24.05;14.27;;;;;;;2.72;100.00;101512.56;4971631;28;20035;-80
2022/04/11 05:47:04;;;;;;;24.23;14.70;;;;;;;2.86;100.00;101503.97;4958341;28;20035;-80
2022/04/11 05:49:29;;;;;;;23.67;13.75;;;;;;;3.09;100.00;101505.81;4979119;28;20027;-80
2022/04/11 05:51:55;;;;;;;28.45;14.73;;;;;;;3.05;100.00;101507.78;4971643;28;20083;-80
2022/04/11 05:54:20;;;;;;;26.52;14.20;;;;;;;3.29;100.00;101511.34;4961695;28;20035;-80
2022/04/11 05:56:46;;;;;;;29.73;14.07;;;;;;;3.45;100.00;101508.06;4979026;28;20065;-80
2022/04/11 05:59:11;;;;;;;26.55;13.90;;;;;;;3.64;100.00;101497.38;4982311;28;20039;-80
2022/04/11 06:01:38;;;;;;;22.27;13.30;;;;;;;4.17;100.00;101512.41;4975792;28;20027;-79
2022/04/11 06:04:04;;;;;;;18.45;11.77;;;;;;;4.64;100.00;101514.00;4973342;28;20031;-80
2022/04/11 06:06:29;;;;;;;17.45;11.52;;;;;;;4.83;100.00;101503.25;4983457;28;20447;-79
2022/04/11 06:08:55;;;;;;;19.73;10.88;;;;;;;5.15;100.00;101501.78;4982424;28;20061;-79
2022/04/11 06:11:20;;;;;;;17.80;10.70;;;;;;;5.28;100.00;101502.09;4968310;28;20045;-80
2022/04/11 06:13:45;;;;;;;17.52;10.50;;;;;;;5.56;100.00;101490.81;4972729;28;20387;-80
2022/04/11 06:16:12;;;;;;;15.48;9.70;;;;;;;5.50;100.00;101494.69;4977514;28;20043;-81
2022/04/11 06:18:37;;;;;;;15.30;9.38;;;;;;;5.92;100.00;101499.94;4960958;28;20035;-80
2022/04/11 06:21:03;;;;;;;14.48;10.40;;;;;;;5.89;100.00;101492.84;4961286;29;20430;-80
2022/04/11 06:23:28;;;;;;;16.80;10.80;;;;;;;6.24;100.00;101499.25;4964109;28;20039;-80
2022/04/11 06:25:54;;;;;;;14.68;9.15;;;;;;;6.51;100.00;101511.53;4945074;29;20050;-80
2022/04/11 06:28:20;;;;;;;15.30;8.57;;;;;;;6.55;100.00;101500.41;4973509;28;20035;-80
2022/04/11 06:30:45;;;;;;;12.48;8.07;;;;;;;6.78;100.00;101501.06;4963555;28;20099;-81
2022/04/11 06:33:10;;;;;;;18.20;8.13;;;;;;;6.90;100.00;101499.50;4963009;28;20054;-80
2022/04/11 06:35:36;;;;;;;12.73;7.93;;;;;;;7.07;100.00;101495.91;4958987;29;20035;-81
2022/04/11 06:38:01;;;;;;;10.65;6.93;;;;;;;7.11;100.00;101501.06;4965582;28;20035;-81
2022/04/11 06:40:27;;;;;;;12.30;7.25;;;;;;;7.16;100.00;101495.38;4959517;28;20024;-83
2022/04/11 06:42:52;;;;;;;17.55;7.63;;;;;;;7.39;100.00;101496.84;4960292;28;20126;-80
2022/04/11 06:45:18;;;;;;;12.18;6.25;;;;;;;7.45;100.00;101484.72;4977325;28;20174;-81
2022/04/11 06:47:44;;;;;;;11.40;6.47;;;;;;;7.90;100.00;101502.16;4971573;28;20095;-79
2022/04/11 06:50:10;;;;;;;9.50;5.88;;;;;;;7.80;100.00;101488.16;4975697;28;20035;-79
2022/04/11 06:52:35;;;;;;;12.10;6.25;;;;;;;7.79;100.00;101490.97;4962126;28;20059;-78
2022/04/11 06:55:01;;;;;;;13.55;6.30;;;;;;;8.03;100.00;101489.56;4958542;28;20072;-80
2022/04/11 06:57:26;;;;;;;18.35;7.30;;;;;;;8.20;100.00;101502.22;4974142;28;20035;-80
2022/04/11 06:59:52;;;;;;;14.80;6.60;;;;;;;8.43;100.00;101506.34;4976542;28;20050;-80
2022/04/11 07:02:18;;;;;;;14.18;6.78;;;;;;;8.90;100.00;101496.22;4972780;28;20421;-80
2022/04/11 07:04:44;;;;;;;17.08;7.05;;;;;;;8.93;100.00;101500.63;4960561;28;20050;-79
2022/04/11 07:07:09;;;;;;;14.73;6.07;;;;;;;9.08;100.00;101507.00;4958551;28;20027;-79
2022/04/11 07:09:35;;;;;;;10.80;5.60;;;;;;;8.85;100.00;101502.97;4958910;28;20031;-80
2022/04/11 07:12:00;;;;;;;10.95;6.25;;;;;;;8.68;100.00;101514.94;4976387;28;20482;-81
2022/04/11 07:14:26;;;;;;;14.30;6.30;;;;;;;9.15;98.40;101511.09;4960592;28;20031;-82
2022/04/11 07:16:52;;;;;;;13.82;5.35;;;;;;;9.36;97.77;101515.22;4957095;28;20070;-80
2022/04/11 07:19:19;;;;;;;14.82;5.65;;;;;;;9.15;99.48;101511.09;4971283;28;20039;-81
2022/04/11 07:21:46;;;;;;;8.70;5.35;;;;;;;9.18;99.27;101513.63;4979405;28;20035;-80
2022/04/11 07:24:12;;;;;;;8.52;5.22;;;;;;;9.77;96.18;101509.91;4966474;28;20047;-78
2022/04/11 07:26:37;;;;;;;11.77;6.00;;;;;;;9.82;96.92;101513.22;4942262;28;20394;-79
2022/04/11 07:29:03;;;;;;;6.82;5.18;;;;;;;10.09;94.11;101510.53;4971566;28;20057;-79
2022/04/11 07:31:29;;;;;;;9.45;4.80;;;;;;;10.20;93.47;101493.38;4965605;28;20059;-80
2022/04/11 07:33:55;;;;;;;7.97;5.05;;;;;;;10.17;94.85;101499.94;4981410;28;20041;-80
2022/04/11 07:36:20;;;;;;;10.70;4.55;;;;;;;10.13;93.90;101498.38;4958249;28;20053;-80
2022/04/11 07:38:46;;;;;;;9.07;5.43;;;;;;;10.58;92.92;101488.06;4974373;28;20034;-79
2022/04/11 07:41:11;;;;;;;7.95;4.60;;;;;;;11.26;87.96;101485.16;4963662;28;20126;-79
2022/04/11 07:43:37;;;;;;;8.18;4.80;;;;;;;10.30;93.02;101492.66;4986102;28;20042;-80
2022/04/11 07:46:04;;;;;;;8.57;5.25;;;;;;;10.80;91.47;101479.22;4984941;28;20038;-79
2022/04/11 07:48:29;;;;;;;10.70;5.20;;;;;;;10.77;89.86;101481.31;4985603;28;20035;-78
2022/04/11 07:50:56;;;;;;;9.60;4.75;;;;;;;11.38;84.58;101487.91;4984635;28;20513;-79
2022/04/11 07:53:22;;;;;;;7.90;4.63;;;;;;;11.45;84.56;101488.34;4986613;28;20034;-79
2022/04/11 07:55:48;;;;;;;12.80;4.07;;;;;;;11.78;83.97;101474.00;4996979;28;20109;-79
2022/04/11 07:58:15;;;;;;;9.95;5.43;;;;;;;11.51;86.80;101468.69;4963405;28;20521;-78
2022/04/11 08:00:41;;;;;;;12.35;5.53;;;;;;;11.90;86.74;101477.72;4952395;28;20062;-78
2022/04/11 08:03:07;;;;;;;11.23;4.95;;;;;;;12.73;79.50;101464.16;4969171;28;20069;-78
2022/04/11 08:05:32;;;;;;;6.18;4.10;;;;;;;12.44;78.53;101459.03;4958631;28;20042;-78
2022/04/11 08:07:58;;;;;;;10.88;5.82;;;;;;;12.67;84.13;101452.66;4952258;28;20054;-77
2022/04/11 08:10:23;;;;;;;16.40;5.47;;;;;;;12.67;78.53;101451.75;5002406;28;20040;-79
2022/04/11 08:12:59;;;;;;;8.38;5.20;;;;;;;12.46;79.96;101449.69;4982697;28;20030;-79
2022/04/11 08:15:27;;;;;;;12.75;5.00;;;;;;;12.38;80.31;101449.41;4983977;28;20035;-79
2022/04/11 08:17:54;;;;;;;8.45;5.55;;;;;;;12.98;79.88;101450.19;4953970;28;20037;-79
2022/04/11 08:20:19;;;;;;;12.80;5.80;;;;;;;13.28;80.78;101446.00;4988804;28;20487;-79
2022/04/11 08:22:45;;;;;;;10.45;5.13;;;;;;;13.35;76.22;101452.78;4989614;28;20027;-79
2022/04/11 08:25:11;;;;;;;9.75;5.30;;;;;;;13.47;75.16;101452.78;4966514;28;20042;-79
2022/04/11 08:27:36;;;;;;;10.73;5.88;;;;;;;13.91;76.16;101446.31;4953463;28;20027;-80
2022/04/11 08:30:06;;;;;;;9.07;5.78;;;;;;;13.93;78.74;101443.44;4973060;28;20050;-79
2022/04/11 08:32:46;;;;;;;12.35;5.72;;;;;;;14.17;73.87;101435.00;4958977;28;20130;-79
2022/04/11 08:35:12;;;;;;;8.80;4.50;;;;;;;13.34;77.64;101433.63;4997946;28;20031;-82
2022/04/11 08:37:40;;;;;;;7.90;4.10;;;;;;;13.81;72.73;101439.84;4979634;28;20061;-80
2022/04/11 08:40:12;;;;;;;7.50;4.32;;;;;;;13.12;76.38;101431.72;4994312;28;20051;-80
2022/04/11 08:42:42;;;;;;;12.45;4.88;;;;;;;13.56;76.64;101436.38;4996322;28;20053;-80
2022/04/11 08:45:08;;;;;;;8.95;4.90;;;;;;;13.83;73.19;101434.22;4967661;28;20034;-80
2022/04/11 08:47:34;;;;;;;13.07;5.30;;;;;;;14.34;73.54;101428.03;4993124;28;20085;-81
2022/04/11 08:50:02;;;;;;;7.63;4.40;;;;;;;13.89;74.94;101436.47;4990447;28;20109;-79
2022/04/11 08:52:29;;;;;;;6.50;3.67;;;;;;;14.03;70.61;101429.78;4997340;28;20033;-79
2022/04/11 08:54:55;;;;;;;9.43;3.53;;;;;;;13.35;66.74;101432.66;4974319;28;20045;-79
2022/04/11 08:57:22;;;;;;;7.38;3.35;;;;;;;13.98;68.73;101427.41;4969429;28;20035;-80
2022/04/11 08:59:48;;;;;;;8.05;4.10;;;;;;;14.07;69.94;101429.38;4966266;28;20487;-79
2022/04/11 09:02:14;;;;;;;9.52;3.70;;;;;;;14.50;68.12;101419.31;4998606;28;20034;-80
2022/04/11 09:04:56;;;;;;;7.40;4.13;;;;;;;14.51;67.68;101426.56;4975814;28;20034;-79
2022/04/11 09:07:21;;;;;;;9.45;3.75;;;;;;;14.37;68.31;101425.00;4982180;28;20037;-80
2022/04/11 09:09:47;;;;;;;8.20;3.80;;;;;;;14.68;70.02;101425.16;4990502;28;20062;-78
2022/04/11 09:12:15;;;;;;;7.28;3.45;;;;;;;14.88;65.18;101428.91;4979430;28;20027;-82
2022/04/11 09:14:42;;;;;;;8.02;3.45;;;;;;;14.52;67.95;101417.28;4957229;28;20101;-81
2022/04/11 09:17:09;;;;;;;6.72;3.70;;;;;;;14.93;66.89;101428.50;4956056;28;20041;-80
2022/04/11 09:19:35;;;;;;;4.47;3.38;;;;;;;15.04;65.44;101428.41;4960407;28;20034;-82
2022/04/11 09:22:03;;;;;;;9.82;3.65;;;;;;;15.62;62.82;101425.03;4997844;28;20054;-83
2022/04/11 09:24:30;;;;;;;7.45;3.90;;;;;;;15.36;63.31;101410.84;4971759;28;20037;-81
2022/04/11 09:26:56;;;;;;;8.90;3.00;;;;;;;15.22;59.95;101436.94;4961004;28;20053;-79
2022/04/11 09:29:23;;;;;;;9.05;2.97;;;;;;;15.45;60.35;101426.56;4951333;28;20042;-79
2022/04/11 09:31:49;;;;;;;11.88;3.13;;;;;;;14.67;58.80;101415.13;4981704;28;20387;-79
2022/04/11 09:34:19;;;;;;;19.02;3.60;;;;;;;14.50;59.84;101413.81;4971243;28;20038;-80
2022/04/11 09:36:56;;;;;;;6.72;3.20;;;;;;;14.57;59.64;101405.88;4959163;28;20046;-81
2022/04/11 09:39:33;;;;;;;10.75;3.33;;;;;;;15.42;60.13;101405.63;4984062;28;20030;-80
2022/04/11 09:41:58;;;;;;;5.53;3.08;;;;;;;14.70;59.19;101404.69;4974044;28;20113;-78
2022/04/11 09:44:29;;;;;;;6.53;2.60;;;;;;;14.87;59.34;101399.56;4992845;28;20038;-79
2022/04/11 09:46:59;;;;;;;4.32;2.30;;;;;;;15.03;57.27;101391.66;4991599;28;20519;-79
2022/04/11 09:49:26;;;;;;;3.45;2.38;;;;;;;15.14;57.88;101385.19;4948500;28;20042;-80
2022/04/11 09:52:26;;;;;;;6.40;2.40;;;;;;;15.08;56.88;101383.00;4954507;28;20121;-80
2022/04/11 09:54:56;;;;;;;5.60;2.85;;;;;;;15.04;56.37;101378.78;4965674;28;20038;-79
2022/04/11 09:57:26;;;;;;;6.95;3.10;;;;;;;15.53;57.44;101377.06;4975359;28;20056;-80
2022/04/11 09:59:54;;;;;;;5.53;2.50;;;;;;;15.55;59.52;101379.69;4953661;28;20049;-81
2022/04/11 10:02:21;;;;;;;8.70;3.10;;;;;;;15.55;59.03;101375.03;4975642;28;20023;-81
2022/04/11 10:04:47;;;;;;;6.28;2.35;;;;;;;15.22;54.67;101387.28;4978693;28;20058;-81
2022/04/11 10:07:13;;;;;;;6.93;2.35;;;;;;;15.23;54.53;101375.22;4963937;28;20038;-80
2022/04/11 10:09:40;;;;;;;6.05;2.72;;;;;;;15.29;53.66;101371.91;4967044;28;20033;-80
2022/04/11 10:12:06;;;;;;;4.18;2.60;;;;;;;14.96;52.64;101365.66;4967091;28;20442;-80
2022/04/11 10:14:32;;;;;;;6.65;2.85;;;;;;;15.15;54.87;101353.84;4957443;28;20404;-81
2022/04/11 10:17:01;;;;;;;7.97;3.55;;;;;;;15.13;55.04;101346.72;4967110;28;20027;-82
2022/04/11 10:19:38;;;;;;;7.15;3.35;;;;;;;15.29;53.65;101355.34;4982152;28;20043;-81
2022/04/11 10:22:05;;;;;;;10.40;3.45;;;;;;;15.00;51.29;101350.59;4987678;28;20097;-79
2022/04/11 10:24:46;;;;;;;7.75;3.20;;;;;;;14.90;56.54;101341.38;4960319;28;20502;-78
2022/04/11 10:27:21;;;;;;;9.70;3.03;;;;;;;15.19;53.87;101352.56;4966372;28;20038;-80
2022/04/11 10:29:49;;;;;;;6.07;2.58;;;;;;;15.18;55.21;101347.16;4999156;28;20394;-81
2022/04/11 10:32:27;;;;;;;5.45;2.40;;;;;;;15.31;52.46;101335.91;4989032;28;20030;-79
2022/04/11 10:35:01;;;;;;;3.42;2.38;;;;;;;15.21;52.46;101349.66;4968859;28;20043;-79
2022/04/11 10:37:38;;;;;;;4.47;2.50;;;;;;;14.95;48.86;101347.38;4956017;28;20035;-80
2022/04/11 10:40:16;;;;;;;6.70;2.40;;;;;;;15.03;49.99;101347.53;4947428;28;20076;-79
2022/04/11 10:43:05;;;;;;;8.20;2.78;;;;;;;14.92;49.78;101344.00;4973118;28;20209;-80
2022/04/11 10:45:34;;;;;;;6.43;2.65;;;;;;;15.05;51.50;101334.50;4966172;28;20078;-80
2022/04/11 10:48:00;;;;;;;9.90;3.42;;;;;;;15.51;51.19;101334.94;4980712;28;20184;-80
2022/04/11 10:50:48;;;;;;;7.78;3.17;;;;;;;15.59;53.27;101343.38;4958189;28;20042;-80
2022/04/11 10:53:24;;;;;;;5.10;3.17;;;;;;;15.25;50.65;101337.34;4952896;28;20042;-80
2022/04/11 10:56:04;;;;;;;8.15;3.30;;;;;;;15.06;51.48;101327.09;4962466;28;20046;-81
2022/04/11 10:58:50;;;;;;;7.50;3.65;;;;;;;15.89;48.35;101326.88;4963455;28;20561;-79
2022/04/11 11:01:44;;;;;;;6.25;3.40;;;;;;;15.15;48.19;101334.56;4975505;28;20474;-80
2022/04/11 11:04:20;;;;;;;5.95;3.50;;;;;;;15.16;50.71;101321.63;4960204;28;20482;-79
2022/04/11 11:06:46;;;;;;;8.07;3.42;;;;;;;14.90;49.31;101319.34;4963161;28;20038;-79
2022/04/11 11:09:19;;;;;;;7.25;4.00;;;;;;;14.86;50.33;101327.00;4979148;28;20046;-81
2022/04/11 11:11:45;;;;;;;8.93;3.85;;;;;;;14.84;49.52;101315.25;4965599;28;20037;-79
2022/04/11 11:14:40;;;;;;;7.55;3.90;;;;;;;15.53;48.59;101313.59;4962844;28;20477;-83